Pagrindinis puslapis
METAR-TAF:

METAR-TAF

Oro uostai :

Schleswig-Jagel, Vokietija

platuma: 54-28N, ilguma: 009-31E, Aukštis: 22 m

Dabartinis oras

Ataskaita buvo paskelbta 42 minutes, ne 02:20 UTC
Vėjas 7 kt iš Rytų
Temperatūra 11°C
Drėgmė 87%
Slėgis 1010 hPa
Matomumas: 5000 m

METAR: ETNS 110220Z AUTO 10007KT 5000 // ////// 11/09 Q1010 ///

Laikas: 05:02 (03:02 UTC)

Prognozė

Ataskaita buvo paskelbta 13 valandos ir 52 minutes, ne 13:10 UTC
Prognozė galioja nuo 10 metu 14 UTC su 10 metu 23 UTC
Vėjas 10 kt iš Vakarų
Matomumas 10 km arba daugiau
Su prošvaistėmis ne aukštis 6000 ft

TAF: ETNS 101310Z 1014/1023 28010KT 9999 NSW BKN060 BY ETGL

Orai ataskaitas ir orų prognozės (METAR, TAF).

turimą stotys yra geltonos ir raudonos taškus žemėlapyje.

Perkelti pele per norėdami pamatyti stoties vardą.

Tada spustelėkite, norėdami matyti oro stebėjimo ir prognozės.

Norėdami pakeisti žemėlapį: spustelėkite ant žalios mygtukų su juodo kryžiaus žemyn,; žalią mygtuką su brūkšneliu, jei norite nutolinti; arba žalių rodyklių gretimoms žemėlapius.


METAR-TAF: